sensor_id;sensor_type;location;lat;lon;timestamp;temperature;humidity
56542;DHT22;42438;53.174;6.730;2022-11-23T00:00:10;7.00;99.90
56542;DHT22;42438;53.174;6.730;2022-11-23T00:02:41;6.90;99.90
56542;DHT22;42438;53.174;6.730;2022-11-23T00:05:11;7.00;99.90
56542;DHT22;42438;53.174;6.730;2022-11-23T00:07:42;6.90;99.90
56542;DHT22;42438;53.174;6.730;2022-11-23T00:10:13;6.90;99.90
56542;DHT22;42438;53.174;6.730;2022-11-23T00:12:44;6.90;99.90
56542;DHT22;42438;53.174;6.730;2022-11-23T00:15:15;7.10;99.90
56542;DHT22;42438;53.174;6.730;2022-11-23T00:17:46;6.90;99.90
56542;DHT22;42438;53.174;6.730;2022-11-23T00:20:17;7.00;99.90
56542;DHT22;42438;53.174;6.730;2022-11-23T00:22:48;7.10;99.90
56542;DHT22;42438;53.174;6.730;2022-11-23T00:25:19;7.00;99.90
56542;DHT22;42438;53.174;6.730;2022-11-23T00:27:49;7.10;99.90
56542;DHT22;42438;53.174;6.730;2022-11-23T00:30:20;7.00;99.90
56542;DHT22;42438;53.174;6.730;2022-11-23T00:32:51;7.10;99.90
56542;DHT22;42438;53.174;6.730;2022-11-23T00:35:22;7.00;99.90
56542;DHT22;42438;53.174;6.730;2022-11-23T00:37:52;7.30;99.90
56542;DHT22;42438;53.174;6.730;2022-11-23T00:40:23;7.20;99.90
56542;DHT22;42438;53.174;6.730;2022-11-23T00:42:54;7.00;99.90
56542;DHT22;42438;53.174;6.730;2022-11-23T00:45:24;7.10;99.90
56542;DHT22;42438;53.174;6.730;2022-11-23T00:47:55;7.80;99.90
56542;DHT22;42438;53.174;6.730;2022-11-23T00:50:26;7.10;99.90
56542;DHT22;42438;53.174;6.730;2022-11-23T00:52:56;7.10;99.90
56542;DHT22;42438;53.174;6.730;2022-11-23T00:55:27;7.10;99.90
56542;DHT22;42438;53.174;6.730;2022-11-23T00:57:57;7.00;99.90
56542;DHT22;42438;53.174;6.730;2022-11-23T01:00:28;7.20;99.90
56542;DHT22;42438;53.174;6.730;2022-11-23T01:02:59;7.20;99.90
56542;DHT22;42438;53.174;6.730;2022-11-23T01:05:29;7.10;99.90
56542;DHT22;42438;53.174;6.730;2022-11-23T01:08:01;7.30;99.90
56542;DHT22;42438;53.174;6.730;2022-11-23T01:10:32;7.10;99.90
56542;DHT22;42438;53.174;6.730;2022-11-23T01:13:02;7.10;99.90
56542;DHT22;42438;53.174;6.730;2022-11-23T01:15:33;7.10;99.90
56542;DHT22;42438;53.174;6.730;2022-11-23T01:18:04;7.30;99.90
56542;DHT22;42438;53.174;6.730;2022-11-23T01:20:34;7.10;99.90
56542;DHT22;42438;53.174;6.730;2022-11-23T01:23:05;7.20;99.90
56542;DHT22;42438;53.174;6.730;2022-11-23T01:25:36;7.40;99.90
56542;DHT22;42438;53.174;6.730;2022-11-23T01:28:06;7.10;99.90
56542;DHT22;42438;53.174;6.730;2022-11-23T01:30:37;7.30;99.90
56542;DHT22;42438;53.174;6.730;2022-11-23T01:33:08;7.30;99.90
56542;DHT22;42438;53.174;6.730;2022-11-23T01:35:38;7.20;99.90
56542;DHT22;42438;53.174;6.730;2022-11-23T01:38:09;7.30;99.90
56542;DHT22;42438;53.174;6.730;2022-11-23T01:40:41;7.20;99.90
56542;DHT22;42438;53.174;6.730;2022-11-23T01:43:16;7.30;99.90
56542;DHT22;42438;53.174;6.730;2022-11-23T01:45:58;7.30;99.90
56542;DHT22;42438;53.174;6.730;2022-11-23T01:48:59;7.20;99.90
56542;DHT22;42438;53.174;6.730;2022-11-23T01:51:33;7.30;99.90
56542;DHT22;42438;53.174;6.730;2022-11-23T01:54:33;7.40;99.90
56542;DHT22;42438;53.174;6.730;2022-11-23T01:57:19;7.60;99.90
56542;DHT22;42438;53.174;6.730;2022-11-23T01:59:51;7.20;99.90
56542;DHT22;42438;53.174;6.730;2022-11-23T02:02:22;7.30;99.90
56542;DHT22;42438;53.174;6.730;2022-11-23T02:04:56;7.30;99.90
56542;DHT22;42438;53.174;6.730;2022-11-23T02:07:29;7.40;99.90
56542;DHT22;42438;53.174;6.730;2022-11-23T02:10:01;7.40;99.90
56542;DHT22;42438;53.174;6.730;2022-11-23T02:12:31;7.30;99.90
56542;DHT22;42438;53.174;6.730;2022-11-23T02:15:02;7.30;99.90
56542;DHT22;42438;53.174;6.730;2022-11-23T02:17:33;7.20;99.90
56542;DHT22;42438;53.174;6.730;2022-11-23T02:20:09;7.40;99.90
56542;DHT22;42438;53.174;6.730;2022-11-23T02:28:18;7.40;99.90
56542;DHT22;42438;53.174;6.730;2022-11-23T02:30:52;7.50;99.90
56542;DHT22;42438;53.174;6.730;2022-11-23T02:33:23;7.30;99.90
56542;DHT22;42438;53.174;6.730;2022-11-23T02:35:57;7.30;99.90
56542;DHT22;42438;53.174;6.730;2022-11-23T02:38:30;7.40;99.90
56542;DHT22;42438;53.174;6.730;2022-11-23T02:41:02;7.30;99.90
56542;DHT22;42438;53.174;6.730;2022-11-23T02:43:33;7.30;99.90
56542;DHT22;42438;53.174;6.730;2022-11-23T02:46:04;7.30;99.90
56542;DHT22;42438;53.174;6.730;2022-11-23T02:48:35;7.40;99.90
56542;DHT22;42438;53.174;6.730;2022-11-23T02:51:06;7.30;99.90
56542;DHT22;42438;53.174;6.730;2022-11-23T02:53:37;7.50;99.90
56542;DHT22;42438;53.174;6.730;2022-11-23T02:56:07;7.40;99.90
56542;DHT22;42438;53.174;6.730;2022-11-23T02:58:38;7.40;99.90
56542;DHT22;42438;53.174;6.730;2022-11-23T03:01:08;7.60;99.90
56542;DHT22;42438;53.174;6.730;2022-11-23T03:03:39;7.40;99.90
56542;DHT22;42438;53.174;6.730;2022-11-23T03:06:10;7.50;99.90
56542;DHT22;42438;53.174;6.730;2022-11-23T03:08:40;7.70;99.90
56542;DHT22;42438;53.174;6.730;2022-11-23T03:11:11;7.40;99.90
56542;DHT22;42438;53.174;6.730;2022-11-23T03:13:42;7.40;99.90
56542;DHT22;42438;53.174;6.730;2022-11-23T03:16:13;7.50;99.90
56542;DHT22;42438;53.174;6.730;2022-11-23T03:18:43;7.90;99.90
56542;DHT22;42438;53.174;6.730;2022-11-23T03:21:14;7.50;99.90
56542;DHT22;42438;53.174;6.730;2022-11-23T03:23:45;7.40;99.90
56542;DHT22;42438;53.174;6.730;2022-11-23T03:26:15;7.60;99.90
56542;DHT22;42438;53.174;6.730;2022-11-23T03:28:46;7.50;99.90
56542;DHT22;42438;53.174;6.730;2022-11-23T03:31:17;7.50;99.90
56542;DHT22;42438;53.174;6.730;2022-11-23T03:33:48;7.40;99.90
56542;DHT22;42438;53.174;6.730;2022-11-23T03:36:19;7.40;99.90
56542;DHT22;42438;53.174;6.730;2022-11-23T03:38:49;7.40;99.90
56542;DHT22;42438;53.174;6.730;2022-11-23T03:41:20;7.50;99.90
56542;DHT22;42438;53.174;6.730;2022-11-23T03:43:51;7.50;99.90
56542;DHT22;42438;53.174;6.730;2022-11-23T03:46:21;7.40;99.90
56542;DHT22;42438;53.174;6.730;2022-11-23T03:48:52;7.50;99.90
56542;DHT22;42438;53.174;6.730;2022-11-23T03:51:23;7.50;99.90
56542;DHT22;42438;53.174;6.730;2022-11-23T03:53:53;7.50;99.90
56542;DHT22;42438;53.174;6.730;2022-11-23T03:56:24;7.60;99.90
56542;DHT22;42438;53.174;6.730;2022-11-23T03:58:55;7.50;99.90
56542;DHT22;42438;53.174;6.730;2022-11-23T04:01:25;7.50;99.90
56542;DHT22;42438;53.174;6.730;2022-11-23T04:03:56;7.60;99.90
56542;DHT22;42438;53.174;6.730;2022-11-23T04:06:27;7.60;99.90
56542;DHT22;42438;53.174;6.730;2022-11-23T04:08:57;7.50;99.90
56542;DHT22;42438;53.174;6.730;2022-11-23T04:11:28;7.50;99.90
56542;DHT22;42438;53.174;6.730;2022-11-23T04:13:59;7.50;99.90
56542;DHT22;42438;53.174;6.730;2022-11-23T04:16:29;7.60;99.90
56542;DHT22;42438;53.174;6.730;2022-11-23T04:19:00;7.70;99.90
56542;DHT22;42438;53.174;6.730;2022-11-23T04:21:31;7.50;99.90
56542;DHT22;42438;53.174;6.730;2022-11-23T04:24:02;7.60;99.90
56542;DHT22;42438;53.174;6.730;2022-11-23T04:26:32;7.50;99.90
56542;DHT22;42438;53.174;6.730;2022-11-23T04:29:03;7.60;99.90
56542;DHT22;42438;53.174;6.730;2022-11-23T04:31:34;7.50;99.90
56542;DHT22;42438;53.174;6.730;2022-11-23T04:34:04;7.50;99.90
56542;DHT22;42438;53.174;6.730;2022-11-23T04:36:35;7.60;99.90
56542;DHT22;42438;53.174;6.730;2022-11-23T04:39:06;7.60;99.90
56542;DHT22;42438;53.174;6.730;2022-11-23T04:41:37;7.70;99.90
56542;DHT22;42438;53.174;6.730;2022-11-23T04:44:08;7.50;99.90
56542;DHT22;42438;53.174;6.730;2022-11-23T04:46:38;7.60;99.90
56542;DHT22;42438;53.174;6.730;2022-11-23T04:49:09;7.80;99.90
56542;DHT22;42438;53.174;6.730;2022-11-23T04:51:40;7.50;99.90
56542;DHT22;42438;53.174;6.730;2022-11-23T04:54:10;7.70;99.90
56542;DHT22;42438;53.174;6.730;2022-11-23T04:56:41;7.60;99.90
56542;DHT22;42438;53.174;6.730;2022-11-23T04:59:12;7.70;99.90
56542;DHT22;42438;53.174;6.730;2022-11-23T05:01:42;7.70;99.90
56542;DHT22;42438;53.174;6.730;2022-11-23T05:04:13;7.50;99.90
56542;DHT22;42438;53.174;6.730;2022-11-23T05:06:44;7.60;99.90
56542;DHT22;42438;53.174;6.730;2022-11-23T05:09:15;7.70;99.90
56542;DHT22;42438;53.174;6.730;2022-11-23T05:11:46;7.60;99.90
56542;DHT22;42438;53.174;6.730;2022-11-23T05:14:16;7.70;99.90
56542;DHT22;42438;53.174;6.730;2022-11-23T05:16:47;7.70;99.90
56542;DHT22;42438;53.174;6.730;2022-11-23T05:19:18;7.50;99.90
56542;DHT22;42438;53.174;6.730;2022-11-23T05:21:48;7.70;99.90
56542;DHT22;42438;53.174;6.730;2022-11-23T05:24:19;7.50;99.90
56542;DHT22;42438;53.174;6.730;2022-11-23T05:26:49;7.50;99.90
56542;DHT22;42438;53.174;6.730;2022-11-23T05:29:20;7.80;99.90
56542;DHT22;42438;53.174;6.730;2022-11-23T05:31:51;7.60;99.90
56542;DHT22;42438;53.174;6.730;2022-11-23T05:34:21;7.60;99.90
56542;DHT22;42438;53.174;6.730;2022-11-23T05:36:52;7.50;99.90
56542;DHT22;42438;53.174;6.730;2022-11-23T05:39:23;7.60;99.90
56542;DHT22;42438;53.174;6.730;2022-11-23T05:41:54;7.70;99.90
56542;DHT22;42438;53.174;6.730;2022-11-23T05:44:24;7.60;99.90
56542;DHT22;42438;53.174;6.730;2022-11-23T05:46:55;7.80;99.90
56542;DHT22;42438;53.174;6.730;2022-11-23T05:49:26;7.70;99.90
56542;DHT22;42438;53.174;6.730;2022-11-23T05:51:56;7.60;99.90
56542;DHT22;42438;53.174;6.730;2022-11-23T05:54:27;7.60;99.90
56542;DHT22;42438;53.174;6.730;2022-11-23T05:56:57;7.60;99.90
56542;DHT22;42438;53.174;6.730;2022-11-23T05:59:28;7.80;99.90
56542;DHT22;42438;53.174;6.730;2022-11-23T06:01:59;7.80;99.90
56542;DHT22;42438;53.174;6.730;2022-11-23T06:04:29;7.80;99.90
56542;DHT22;42438;53.174;6.730;2022-11-23T06:07:00;7.80;99.90
56542;DHT22;42438;53.174;6.730;2022-11-23T06:09:31;7.70;99.90
56542;DHT22;42438;53.174;6.730;2022-11-23T06:12:01;7.90;99.90
56542;DHT22;42438;53.174;6.730;2022-11-23T06:14:32;7.60;99.90
56542;DHT22;42438;53.174;6.730;2022-11-23T06:17:03;7.60;99.90
56542;DHT22;42438;53.174;6.730;2022-11-23T06:19:34;7.80;99.90
56542;DHT22;42438;53.174;6.730;2022-11-23T06:22:04;7.70;99.90
56542;DHT22;42438;53.174;6.730;2022-11-23T06:24:35;7.80;99.90
56542;DHT22;42438;53.174;6.730;2022-11-23T06:27:06;7.70;99.90
56542;DHT22;42438;53.174;6.730;2022-11-23T06:29:37;7.60;99.90
56542;DHT22;42438;53.174;6.730;2022-11-23T06:32:07;7.60;99.90
56542;DHT22;42438;53.174;6.730;2022-11-23T06:34:38;7.60;99.90
56542;DHT22;42438;53.174;6.730;2022-11-23T06:37:09;7.80;99.90
56542;DHT22;42438;53.174;6.730;2022-11-23T06:39:39;7.50;99.90
56542;DHT22;42438;53.174;6.730;2022-11-23T06:42:10;7.70;99.90
56542;DHT22;42438;53.174;6.730;2022-11-23T06:44:42;7.60;99.90
56542;DHT22;42438;53.174;6.730;2022-11-23T06:47:12;7.50;99.90
56542;DHT22;42438;53.174;6.730;2022-11-23T06:49:43;7.50;99.90
56542;DHT22;42438;53.174;6.730;2022-11-23T06:52:13;7.60;99.90
56542;DHT22;42438;53.174;6.730;2022-11-23T06:54:44;7.50;99.90
56542;DHT22;42438;53.174;6.730;2022-11-23T06:57:15;7.50;99.90
56542;DHT22;42438;53.174;6.730;2022-11-23T06:59:46;7.70;99.90
56542;DHT22;42438;53.174;6.730;2022-11-23T07:02:16;7.60;99.90
56542;DHT22;42438;53.174;6.730;2022-11-23T07:04:47;7.50;99.90
56542;DHT22;42438;53.174;6.730;2022-11-23T07:07:20;7.50;99.90
56542;DHT22;42438;53.174;6.730;2022-11-23T07:09:51;7.50;99.90
56542;DHT22;42438;53.174;6.730;2022-11-23T07:12:21;7.60;99.90
56542;DHT22;42438;53.174;6.730;2022-11-23T07:14:52;7.40;99.90
56542;DHT22;42438;53.174;6.730;2022-11-23T07:17:23;7.50;99.90
56542;DHT22;42438;53.174;6.730;2022-11-23T07:19:54;7.40;99.90
56542;DHT22;42438;53.174;6.730;2022-11-23T07:22:24;7.40;99.90
56542;DHT22;42438;53.174;6.730;2022-11-23T07:24:55;7.40;99.90
56542;DHT22;42438;53.174;6.730;2022-11-23T07:27:26;7.60;99.90
56542;DHT22;42438;53.174;6.730;2022-11-23T07:29:56;7.40;99.90
56542;DHT22;42438;53.174;6.730;2022-11-23T07:32:27;7.50;99.90
56542;DHT22;42438;53.174;6.730;2022-11-23T07:34:58;7.40;99.90
56542;DHT22;42438;53.174;6.730;2022-11-23T07:37:28;7.50;99.90
56542;DHT22;42438;53.174;6.730;2022-11-23T07:39:59;7.40;99.90
56542;DHT22;42438;53.174;6.730;2022-11-23T07:42:30;7.50;99.90
56542;DHT22;42438;53.174;6.730;2022-11-23T07:45:01;7.40;99.90
56542;DHT22;42438;53.174;6.730;2022-11-23T07:47:32;7.40;99.90
56542;DHT22;42438;53.174;6.730;2022-11-23T07:50:07;7.60;99.90
56542;DHT22;42438;53.174;6.730;2022-11-23T07:52:39;7.70;99.90
56542;DHT22;42438;53.174;6.730;2022-11-23T07:55:10;7.50;99.90
56542;DHT22;42438;53.174;6.730;2022-11-23T07:57:41;7.70;99.90
56542;DHT22;42438;53.174;6.730;2022-11-23T08:00:12;7.60;99.90
56542;DHT22;42438;53.174;6.730;2022-11-23T08:02:43;7.70;99.90
56542;DHT22;42438;53.174;6.730;2022-11-23T08:05:14;7.60;99.90
56542;DHT22;42438;53.174;6.730;2022-11-23T08:07:45;7.50;99.90
56542;DHT22;42438;53.174;6.730;2022-11-23T08:10:16;7.60;99.90
56542;DHT22;42438;53.174;6.730;2022-11-23T08:12:46;7.70;99.90
56542;DHT22;42438;53.174;6.730;2022-11-23T08:15:17;7.60;99.90
56542;DHT22;42438;53.174;6.730;2022-11-23T08:17:48;7.70;99.90
56542;DHT22;42438;53.174;6.730;2022-11-23T08:20:18;7.60;99.90
56542;DHT22;42438;53.174;6.730;2022-11-23T08:22:49;7.80;99.90
56542;DHT22;42438;53.174;6.730;2022-11-23T08:25:23;7.60;99.90
56542;DHT22;42438;53.174;6.730;2022-11-23T08:27:56;7.70;99.90
56542;DHT22;42438;53.174;6.730;2022-11-23T08:30:28;7.70;99.90
56542;DHT22;42438;53.174;6.730;2022-11-23T08:33:02;8.10;99.90
56542;DHT22;42438;53.174;6.730;2022-11-23T08:35:38;7.70;99.90
56542;DHT22;42438;53.174;6.730;2022-11-23T08:38:09;7.90;99.90
56542;DHT22;42438;53.174;6.730;2022-11-23T08:40:40;7.80;99.90
56542;DHT22;42438;53.174;6.730;2022-11-23T08:43:11;7.70;99.90
56542;DHT22;42438;53.174;6.730;2022-11-23T08:45:42;8.00;99.90
56542;DHT22;42438;53.174;6.730;2022-11-23T08:48:12;7.80;99.90
56542;DHT22;42438;53.174;6.730;2022-11-23T08:50:43;7.80;99.90
56542;DHT22;42438;53.174;6.730;2022-11-23T08:53:14;7.90;99.90
56542;DHT22;42438;53.174;6.730;2022-11-23T08:55:45;8.00;99.90
56542;DHT22;42438;53.174;6.730;2022-11-23T08:58:16;7.90;99.90
56542;DHT22;42438;53.174;6.730;2022-11-23T09:00:47;8.10;99.90
56542;DHT22;42438;53.174;6.730;2022-11-23T09:03:18;8.10;99.90
56542;DHT22;42438;53.174;6.730;2022-11-23T09:05:49;8.10;99.90
56542;DHT22;42438;53.174;6.730;2022-11-23T09:08:20;8.00;99.90
56542;DHT22;42438;53.174;6.730;2022-11-23T09:10:51;8.10;99.90
56542;DHT22;42438;53.174;6.730;2022-11-23T09:13:21;8.10;99.90
56542;DHT22;42438;53.174;6.730;2022-11-23T09:15:59;8.10;99.90
56542;DHT22;42438;53.174;6.730;2022-11-23T09:18:31;8.10;99.90
56542;DHT22;42438;53.174;6.730;2022-11-23T09:21:04;8.00;99.90
56542;DHT22;42438;53.174;6.730;2022-11-23T09:23:35;8.10;99.90
56542;DHT22;42438;53.174;6.730;2022-11-23T09:26:06;8.00;99.90
56542;DHT22;42438;53.174;6.730;2022-11-23T09:28:36;8.20;99.90
56542;DHT22;42438;53.174;6.730;2022-11-23T09:31:07;8.30;99.90
56542;DHT22;42438;53.174;6.730;2022-11-23T09:33:38;8.30;99.90
56542;DHT22;42438;53.174;6.730;2022-11-23T09:36:08;8.40;99.90
56542;DHT22;42438;53.174;6.730;2022-11-23T09:38:39;8.50;99.90
56542;DHT22;42438;53.174;6.730;2022-11-23T09:44:15;8.60;99.90
56542;DHT22;42438;53.174;6.730;2022-11-23T09:49:56;8.70;99.90
56542;DHT22;42438;53.174;6.730;2022-11-23T09:52:29;8.80;99.90
56542;DHT22;42438;53.174;6.730;2022-11-23T09:55:10;8.70;99.90
56542;DHT22;42438;53.174;6.730;2022-11-23T09:57:44;8.80;99.90
56542;DHT22;42438;53.174;6.730;2022-11-23T10:00:21;8.80;99.90
56542;DHT22;42438;53.174;6.730;2022-11-23T10:02:52;8.90;99.90
56542;DHT22;42438;53.174;6.730;2022-11-23T10:05:25;8.80;99.90
56542;DHT22;42438;53.174;6.730;2022-11-23T10:13:44;8.80;99.90
56542;DHT22;42438;53.174;6.730;2022-11-23T10:21:47;8.70;99.90
56542;DHT22;42438;53.174;6.730;2022-11-23T10:24:23;8.90;99.90
56542;DHT22;42438;53.174;6.730;2022-11-23T10:26:57;8.90;99.90
56542;DHT22;42438;53.174;6.730;2022-11-23T10:29:32;8.80;99.90
56542;DHT22;42438;53.174;6.730;2022-11-23T10:32:11;8.80;99.90
56542;DHT22;42438;53.174;6.730;2022-11-23T10:37:28;8.80;99.90
56542;DHT22;42438;53.174;6.730;2022-11-23T10:39:59;8.90;99.90
56542;DHT22;42438;53.174;6.730;2022-11-23T10:42:35;8.80;99.90
56542;DHT22;42438;53.174;6.730;2022-11-23T10:45:22;9.00;99.90
56542;DHT22;42438;53.174;6.730;2022-11-23T10:47:55;8.90;99.90
56542;DHT22;42438;53.174;6.730;2022-11-23T10:50:30;8.80;99.90
56542;DHT22;42438;53.174;6.730;2022-11-23T10:58:29;8.90;99.90
56542;DHT22;42438;53.174;6.730;2022-11-23T11:01:03;8.80;99.90
56542;DHT22;42438;53.174;6.730;2022-11-23T11:03:34;8.80;99.90
56542;DHT22;42438;53.174;6.730;2022-11-23T11:06:05;8.90;99.90
56542;DHT22;42438;53.174;6.730;2022-11-23T11:08:52;8.70;99.90
56542;DHT22;42438;53.174;6.730;2022-11-23T11:14:16;8.80;99.90
56542;DHT22;42438;53.174;6.730;2022-11-23T11:16:50;8.70;99.90
56542;DHT22;42438;53.174;6.730;2022-11-23T11:22:00;8.80;99.90
56542;DHT22;42438;53.174;6.730;2022-11-23T11:24:37;8.90;99.90
56542;DHT22;42438;53.174;6.730;2022-11-23T11:27:20;9.00;99.90
56542;DHT22;42438;53.174;6.730;2022-11-23T11:30:02;8.90;99.90
56542;DHT22;42438;53.174;6.730;2022-11-23T11:35:41;9.10;99.90
56542;DHT22;42438;53.174;6.730;2022-11-23T11:38:24;9.20;99.90
56542;DHT22;42438;53.174;6.730;2022-11-23T11:40:59;9.10;99.90
56542;DHT22;42438;53.174;6.730;2022-11-23T11:43:41;9.20;99.90
56542;DHT22;42438;53.174;6.730;2022-11-23T11:46:22;9.30;99.90
56542;DHT22;42438;53.174;6.730;2022-11-23T11:48:56;9.40;99.90
56542;DHT22;42438;53.174;6.730;2022-11-23T11:51:53;9.40;99.90
56542;DHT22;42438;53.174;6.730;2022-11-23T11:54:34;9.60;99.90
56542;DHT22;42438;53.174;6.730;2022-11-23T11:59:48;9.70;99.90
56542;DHT22;42438;53.174;6.730;2022-11-23T12:05:21;9.70;99.90
56542;DHT22;42438;53.174;6.730;2022-11-23T12:08:19;9.80;99.90
56542;DHT22;42438;53.174;6.730;2022-11-23T12:10:54;9.90;99.90
56542;DHT22;42438;53.174;6.730;2022-11-23T12:13:29;10.00;99.90
56542;DHT22;42438;53.174;6.730;2022-11-23T12:16:16;9.90;99.90
56542;DHT22;42438;53.174;6.730;2022-11-23T12:19:49;10.10;99.90
56542;DHT22;42438;53.174;6.730;2022-11-23T12:53:53;10.60;99.90
56542;DHT22;42438;53.174;6.730;2022-11-23T12:59:20;10.50;99.90
56542;DHT22;42438;53.174;6.730;2022-11-23T13:01:59;10.50;99.90
56542;DHT22;42438;53.174;6.730;2022-11-23T13:04:56;10.50;99.90
56542;DHT22;42438;53.174;6.730;2022-11-23T13:16:29;10.20;99.90
56542;DHT22;42438;53.174;6.730;2022-11-23T13:21:46;10.20;99.90
56542;DHT22;42438;53.174;6.730;2022-11-23T13:24:32;10.30;99.90
56542;DHT22;42438;53.174;6.730;2022-11-23T13:40:45;10.30;99.90
56542;DHT22;42438;53.174;6.730;2022-11-23T13:43:29;10.30;99.90
56542;DHT22;42438;53.174;6.730;2022-11-23T13:46:20;10.30;99.90
56542;DHT22;42438;53.174;6.730;2022-11-23T13:48:54;10.30;99.90
56542;DHT22;42438;53.174;6.730;2022-11-23T13:51:29;10.30;99.90
56542;DHT22;42438;53.174;6.730;2022-11-23T13:54:19;10.30;99.90
56542;DHT22;42438;53.174;6.730;2022-11-23T13:57:00;10.30;99.90
56542;DHT22;42438;53.174;6.730;2022-11-23T13:59:32;10.20;99.90
56542;DHT22;42438;53.174;6.730;2022-11-23T14:04:43;10.10;99.90
56542;DHT22;42438;53.174;6.730;2022-11-23T14:07:23;10.00;99.90
56542;DHT22;42438;53.174;6.730;2022-11-23T14:09:59;10.00;99.90
56542;DHT22;42438;53.174;6.730;2022-11-23T14:12:48;9.90;99.90
56542;DHT22;42438;53.174;6.730;2022-11-23T14:15:26;9.90;99.90
56542;DHT22;42438;53.174;6.730;2022-11-23T14:29:31;9.50;99.90
56542;DHT22;42438;53.174;6.730;2022-11-23T14:32:31;9.40;99.90
56542;DHT22;42438;53.174;6.730;2022-11-23T14:35:31;9.30;99.90
56542;DHT22;42438;53.174;6.730;2022-11-23T14:38:37;9.20;99.90
56542;DHT22;42438;53.174;6.730;2022-11-23T14:41:26;9.20;99.90
56542;DHT22;42438;53.174;6.730;2022-11-23T14:43:59;9.10;99.90
56542;DHT22;42438;53.174;6.730;2022-11-23T14:46:30;9.10;99.90
56542;DHT22;42438;53.174;6.730;2022-11-23T14:49:05;9.00;99.90
56542;DHT22;42438;53.174;6.730;2022-11-23T14:51:42;8.90;99.90
56542;DHT22;42438;53.174;6.730;2022-11-23T14:54:14;8.90;99.90
56542;DHT22;42438;53.174;6.730;2022-11-23T14:56:47;8.80;99.90
56542;DHT22;42438;53.174;6.730;2022-11-23T14:59:36;8.80;99.90
56542;DHT22;42438;53.174;6.730;2022-11-23T15:05:18;8.90;99.90
56542;DHT22;42438;53.174;6.730;2022-11-23T15:11:03;8.50;99.90
56542;DHT22;42438;53.174;6.730;2022-11-23T15:13:47;8.40;99.90
56542;DHT22;42438;53.174;6.730;2022-11-23T15:16:19;8.30;99.90
56542;DHT22;42438;53.174;6.730;2022-11-23T15:18:50;8.30;99.90
56542;DHT22;42438;53.174;6.730;2022-11-23T15:21:23;8.20;99.90
56542;DHT22;42438;53.174;6.730;2022-11-23T15:23:56;8.20;99.90
56542;DHT22;42438;53.174;6.730;2022-11-23T15:26:29;8.20;99.90
56542;DHT22;42438;53.174;6.730;2022-11-23T15:29:00;8.10;99.90
56542;DHT22;42438;53.174;6.730;2022-11-23T15:31:35;8.10;99.90
56542;DHT22;42438;53.174;6.730;2022-11-23T15:34:14;8.10;99.90
56542;DHT22;42438;53.174;6.730;2022-11-23T15:36:45;8.00;99.90
56542;DHT22;42438;53.174;6.730;2022-11-23T15:39:19;8.00;99.90
56542;DHT22;42438;53.174;6.730;2022-11-23T15:41:51;8.00;99.90
56542;DHT22;42438;53.174;6.730;2022-11-23T15:44:25;8.00;99.90
56542;DHT22;42438;53.174;6.730;2022-11-23T15:47:04;8.00;99.90
56542;DHT22;42438;53.174;6.730;2022-11-23T15:49:37;8.00;99.90
56542;DHT22;42438;53.174;6.730;2022-11-23T15:52:12;8.00;99.90
56542;DHT22;42438;53.174;6.730;2022-11-23T15:54:44;8.10;99.90
56542;DHT22;42438;53.174;6.730;2022-11-23T15:57:23;8.10;99.90
56542;DHT22;42438;53.174;6.730;2022-11-23T15:59:58;8.10;99.90
56542;DHT22;42438;53.174;6.730;2022-11-23T16:02:30;8.20;99.90
56542;DHT22;42438;53.174;6.730;2022-11-23T16:05:17;8.20;99.90
56542;DHT22;42438;53.174;6.730;2022-11-23T16:10:25;8.20;99.90
56542;DHT22;42438;53.174;6.730;2022-11-23T16:12:58;8.30;99.90
56542;DHT22;42438;53.174;6.730;2022-11-23T16:20:50;8.30;99.90
56542;DHT22;42438;53.174;6.730;2022-11-23T16:23:28;8.20;99.90
56542;DHT22;42438;53.174;6.730;2022-11-23T16:26:04;8.20;99.90
56542;DHT22;42438;53.174;6.730;2022-11-23T16:31:36;8.20;99.90
56542;DHT22;42438;53.174;6.730;2022-11-23T16:34:17;8.10;99.90
56542;DHT22;42438;53.174;6.730;2022-11-23T16:36:48;8.10;99.90
56542;DHT22;42438;53.174;6.730;2022-11-23T16:39:19;8.10;99.90
56542;DHT22;42438;53.174;6.730;2022-11-23T16:41:50;8.10;99.90
56542;DHT22;42438;53.174;6.730;2022-11-23T16:44:21;8.10;99.90
56542;DHT22;42438;53.174;6.730;2022-11-23T16:46:52;8.10;99.90
56542;DHT22;42438;53.174;6.730;2022-11-23T16:49:23;8.10;99.90
56542;DHT22;42438;53.174;6.730;2022-11-23T16:51:53;8.10;99.90
56542;DHT22;42438;53.174;6.730;2022-11-23T16:54:24;8.00;99.90
56542;DHT22;42438;53.174;6.730;2022-11-23T16:56:55;8.00;99.90
56542;DHT22;42438;53.174;6.730;2022-11-23T16:59:25;8.00;99.90
56542;DHT22;42438;53.174;6.730;2022-11-23T17:01:56;7.90;99.90
56542;DHT22;42438;53.174;6.730;2022-11-23T17:04:27;8.00;99.90
56542;DHT22;42438;53.174;6.730;2022-11-23T17:06:58;7.90;99.90
56542;DHT22;42438;53.174;6.730;2022-11-23T17:09:28;8.00;99.90
56542;DHT22;42438;53.174;6.730;2022-11-23T17:11:59;7.90;99.90
56542;DHT22;42438;53.174;6.730;2022-11-23T17:14:35;7.90;99.90
56542;DHT22;42438;53.174;6.730;2022-11-23T17:17:15;7.90;99.90
56542;DHT22;42438;53.174;6.730;2022-11-23T17:19:49;7.90;99.90
56542;DHT22;42438;53.174;6.730;2022-11-23T17:22:21;7.90;99.90
56542;DHT22;42438;53.174;6.730;2022-11-23T17:24:51;8.00;99.90
56542;DHT22;42438;53.174;6.730;2022-11-23T17:27:24;8.00;99.90
56542;DHT22;42438;53.174;6.730;2022-11-23T17:29:59;7.90;99.90
56542;DHT22;42438;53.174;6.730;2022-11-23T17:32:30;8.00;99.90
56542;DHT22;42438;53.174;6.730;2022-11-23T17:35:02;7.80;99.90
56542;DHT22;42438;53.174;6.730;2022-11-23T17:37:33;7.80;99.90
56542;DHT22;42438;53.174;6.730;2022-11-23T17:40:04;7.90;99.90
56542;DHT22;42438;53.174;6.730;2022-11-23T17:42:35;7.80;99.90
56542;DHT22;42438;53.174;6.730;2022-11-23T17:45:06;7.80;99.90
56542;DHT22;42438;53.174;6.730;2022-11-23T17:47:37;7.70;99.90
56542;DHT22;42438;53.174;6.730;2022-11-23T17:50:12;7.70;99.90
56542;DHT22;42438;53.174;6.730;2022-11-23T17:52:44;7.70;99.90
56542;DHT22;42438;53.174;6.730;2022-11-23T17:55:15;7.70;99.90
56542;DHT22;42438;53.174;6.730;2022-11-23T17:57:46;7.70;99.90
56542;DHT22;42438;53.174;6.730;2022-11-23T18:00:19;7.80;99.90
56542;DHT22;42438;53.174;6.730;2022-11-23T18:02:50;7.60;99.90
56542;DHT22;42438;53.174;6.730;2022-11-23T18:05:22;7.70;99.90
56542;DHT22;42438;53.174;6.730;2022-11-23T18:07:52;7.60;99.90
56542;DHT22;42438;53.174;6.730;2022-11-23T18:10:23;7.60;99.90
56542;DHT22;42438;53.174;6.730;2022-11-23T18:12:54;7.50;99.90
56542;DHT22;42438;53.174;6.730;2022-11-23T18:15:24;7.70;99.90
56542;DHT22;42438;53.174;6.730;2022-11-23T18:17:55;7.60;99.90
56542;DHT22;42438;53.174;6.730;2022-11-23T18:20:26;7.70;99.90
56542;DHT22;42438;53.174;6.730;2022-11-23T18:22:57;7.50;99.90
56542;DHT22;42438;53.174;6.730;2022-11-23T18:25:27;7.60;99.90
56542;DHT22;42438;53.174;6.730;2022-11-23T18:27:58;7.60;99.90
56542;DHT22;42438;53.174;6.730;2022-11-23T18:30:29;7.60;99.90
56542;DHT22;42438;53.174;6.730;2022-11-23T18:32:59;7.50;99.90
56542;DHT22;42438;53.174;6.730;2022-11-23T18:35:30;7.40;99.90
56542;DHT22;42438;53.174;6.730;2022-11-23T18:38:01;7.40;99.90